Terminal Aerodrome Forecast
Issued by NWS Billings, MT

Home | Current Version | Previous Version | Text Only | Print | Product List | Glossary On
Versions: 1 2 3 4 5 6 7 8 9 10 11 12 13 14 15 16 17 18 19 20 21 22 23 24 25 26 27 28
000
FTUS45 KBYZ 211743
TAFSHR
TAF
KSHR 211743Z 2118/2218 VRB05KT P6SM VCSH FEW035 BKN110
     FM212100 35010KT P6SM VCTS SCT040CB BKN090
     FM220600 VRB06KT P6SM FEW015 OVC050=

USA.gov is the U.S. government's official web portal to all federal, state and local government web resources and services.